Time;durP1;ratioP1;P1;durP2;ratioP2;P2;SDS_P1;SDS_P2;PMS_P1;PMS_P2;Temp;Humidity;BMP_temperature;BMP_pressure;BME280_temperature;BME280_humidity;BME280_pressure;Samples;Min_cycle;Max_cycle;Signal;HPM_P1;HPM_P2
2022/01/22 00:01:05;;;;;;;29.73;14.87;;;;;;;;;;5049717;28;20404;-60
2022/01/22 00:03:31;;;;;;;28.50;10.43;;;;;;;;;;5046679;28;20454;-60
2022/01/22 00:05:56;;;;;;;24.55;11.85;;;;;;;;;;5045266;28;20045;-60
2022/01/22 00:08:21;;;;;;;32.33;11.47;;;;;;;;;;5044545;28;20040;-60
2022/01/22 00:10:49;;;;;;;34.33;10.63;;;;;;;;;;5047904;28;20458;-60
2022/01/22 00:15:43;;;;;;;22.95;11.15;;;;;;;;;;5045887;28;20036;-60
2022/01/22 00:18:08;;;;;;;20.17;10.23;;;;;;;;;;5044021;28;20432;-60
2022/01/22 00:20:33;;;;;;;30.63;12.63;;;;;;;;;;5051102;28;20365;-60
2022/01/22 00:22:59;;;;;;;33.42;12.77;;;;;;;;;;5050309;28;20066;-60
2022/01/22 00:25:24;;;;;;;28.57;10.73;;;;;;;;;;5052227;28;20043;-60
2022/01/22 00:27:50;;;;;;;33.33;14.13;;;;;;;;;;5056675;28;20447;-60
2022/01/22 00:30:16;;;;;;;29.38;11.77;;;;;;;;;;5052178;28;20873;-60
2022/01/22 00:32:42;;;;;;;39.45;12.63;;;;;;;;;;5050468;28;20064;-60
2022/01/22 00:35:07;;;;;;;25.85;13.20;;;;;;;;;;5046309;28;20515;-60
2022/01/22 00:37:33;;;;;;;26.88;9.98;;;;;;;;;;5053386;28;20024;-60
2022/01/22 00:39:59;;;;;;;29.60;10.57;;;;;;;;;;5051226;28;20045;-60
2022/01/22 00:42:24;;;;;;;32.20;13.43;;;;;;;;;;5049026;28;20017;-60
2022/01/22 00:44:51;;;;;;;25.35;9.60;;;;;;;;;;5048580;28;20455;-60
2022/01/22 00:47:16;;;;;;;32.47;12.20;;;;;;;;;;5051130;28;20048;-60
2022/01/22 00:49:41;;;;;;;21.83;8.75;;;;;;;;;;5048653;28;20451;-61
2022/01/22 00:52:06;;;;;;;52.47;11.27;;;;;;;;;;5050336;28;20364;-60
2022/01/22 00:54:32;;;;;;;33.03;11.60;;;;;;;;;;5048978;28;20087;-60
2022/01/22 00:56:57;;;;;;;27.65;9.57;;;;;;;;;;5051143;28;20028;-60
2022/01/22 00:59:23;;;;;;;28.05;10.88;;;;;;;;;;5051591;28;20055;-60
2022/01/22 01:01:48;;;;;;;45.15;12.60;;;;;;;;;;5052782;28;20025;-59
2022/01/22 01:04:13;;;;;;;22.33;8.93;;;;;;;;;;5051104;28;20033;-59
2022/01/22 01:06:38;;;;;;;27.38;9.10;;;;;;;;;;5046179;28;20459;-60
2022/01/22 01:09:05;;;;;;;29.73;10.68;;;;;;;;;;5051599;28;20056;-59
2022/01/22 01:11:33;;;;;;;28.75;9.35;;;;;;;;;;5052985;28;20052;-60
2022/01/22 01:14:01;;;;;;;30.90;10.93;;;;;;;;;;5051130;28;20048;-59
2022/01/22 01:33:02;;;;;;;23.45;8.82;;;;;;;;;;5053350;28;20136;-59
2022/01/22 01:35:27;;;;;;;22.98;8.38;;;;;;;;;;5046834;28;20029;-59
2022/01/22 01:37:54;;;;;;;32.25;10.98;;;;;;;;;;5050740;28;20091;-60
2022/01/22 01:40:21;;;;;;;25.80;9.68;;;;;;;;;;5050400;28;20033;-60
2022/01/22 01:45:12;;;;;;;35.55;13.45;;;;;;;;;;5050789;28;20061;-60
2022/01/22 01:47:39;;;;;;;36.47;12.70;;;;;;;;;;5053289;28;20032;-60
2022/01/22 01:50:05;;;;;;;33.28;12.02;;;;;;;;;;5046637;28;20044;-60
2022/01/22 01:52:39;;;;;;;32.88;11.30;;;;;;;;;;5052963;28;20013;-59
2022/01/22 01:55:15;;;;;;;27.48;9.52;;;;;;;;;;5048098;28;20033;-59
2022/01/22 01:57:42;;;;;;;42.55;12.80;;;;;;;;;;5051896;28;20078;-59
2022/01/22 02:00:26;;;;;;;29.30;9.45;;;;;;;;;;5051923;28;20041;-59
2022/01/22 02:02:52;;;;;;;25.42;13.32;;;;;;;;;;5045488;28;20052;-59
2022/01/22 02:05:19;;;;;;;27.58;11.95;;;;;;;;;;5049683;28;20037;-59
2022/01/22 02:07:45;;;;;;;39.97;11.45;;;;;;;;;;5048950;28;20056;-59
2022/01/22 02:10:15;;;;;;;29.65;9.50;;;;;;;;;;5046885;28;20083;-59
2022/01/22 02:26:05;;;;;;;26.83;6.25;;;;;;;;;;5048790;28;20028;-59
2022/01/22 02:28:31;;;;;;;29.00;7.65;;;;;;;;;;5046386;28;20013;-59
2022/01/22 02:31:05;;;;;;;27.85;10.95;;;;;;;;;;5050558;28;20039;-59
2022/01/22 02:33:44;;;;;;;25.05;8.65;;;;;;;;;;5048079;28;20128;-59
2022/01/22 02:39:09;;;;;;;18.13;7.35;;;;;;;;;;5019868;28;20053;-59
2022/01/22 02:41:36;;;;;;;25.17;9.35;;;;;;;;;;5046816;28;20118;-59
2022/01/22 02:44:02;;;;;;;21.30;6.65;;;;;;;;;;5050056;28;20041;-59
2022/01/22 02:46:27;;;;;;;25.17;8.63;;;;;;;;;;5051502;28;20036;-59
2022/01/22 02:48:54;;;;;;;33.10;9.73;;;;;;;;;;5049837;28;21059;-59
2022/01/22 02:51:20;;;;;;;35.58;10.10;;;;;;;;;;5057104;28;20071;-59
2022/01/22 02:53:45;;;;;;;23.27;9.10;;;;;;;;;;5068788;28;20508;-59
2022/01/22 02:56:11;;;;;;;25.70;8.35;;;;;;;;;;5050960;28;20013;-59
2022/01/22 02:58:36;;;;;;;24.08;8.88;;;;;;;;;;5049326;28;20112;-59
2022/01/22 03:01:02;;;;;;;43.80;11.87;;;;;;;;;;5051348;28;20089;-59
2022/01/22 03:03:27;;;;;;;42.50;12.43;;;;;;;;;;5049539;28;20964;-59
2022/01/22 03:05:52;;;;;;;29.77;8.95;;;;;;;;;;5050889;28;20029;-59
2022/01/22 03:08:19;;;;;;;38.33;10.30;;;;;;;;;;5051345;28;20016;-59
2022/01/22 03:10:49;;;;;;;28.00;9.10;;;;;;;;;;5049393;28;20369;-59
2022/01/22 03:13:46;;;;;;;26.58;8.85;;;;;;;;;;5071281;28;20048;-59
2022/01/22 03:16:10;;;;;;;25.20;10.30;;;;;;;;;;5069219;28;20032;-59
2022/01/22 03:18:44;;;;;;;26.20;7.47;;;;;;;;;;5058347;28;20035;-59
2022/01/22 03:21:25;;;;;;;24.33;9.75;;;;;;;;;;5059967;28;20008;-59
2022/01/22 03:29:19;;;;;;;30.15;7.10;;;;;;;;;;5066390;28;20102;-59
2022/01/22 03:31:45;;;;;;;26.90;12.63;;;;;;;;;;5062293;28;20013;-59
2022/01/22 03:34:11;;;;;;;31.60;11.93;;;;;;;;;;5057038;28;20522;-59
2022/01/22 03:36:36;;;;;;;33.28;11.48;;;;;;;;;;5050436;28;20040;-59
2022/01/22 03:39:03;;;;;;;33.08;14.05;;;;;;;;;;5049239;28;20239;-60
2022/01/22 03:41:29;;;;;;;39.17;9.38;;;;;;;;;;5059790;28;20012;-58
2022/01/22 03:43:54;;;;;;;29.70;8.83;;;;;;;;;;5054631;28;20033;-60
2022/01/22 03:46:19;;;;;;;37.95;11.65;;;;;;;;;;5053896;28;20728;-60
2022/01/22 03:48:44;;;;;;;29.60;11.23;;;;;;;;;;5068635;28;20017;-58
2022/01/22 03:51:10;;;;;;;25.38;10.60;;;;;;;;;;5063161;28;20490;-58
2022/01/22 03:53:35;;;;;;;15.75;5.95;;;;;;;;;;5059139;28;20062;-59
2022/01/22 03:56:04;;;;;;;26.85;7.75;;;;;;;;;;5070353;28;20395;-59
2022/01/22 03:58:34;;;;;;;20.35;7.18;;;;;;;;;;5054656;28;20078;-59
2022/01/22 04:04:16;;;;;;;18.73;5.45;;;;;;;;;;5006564;28;20034;-60
2022/01/22 04:09:25;;;;;;;15.60;4.38;;;;;;;;;;5020872;28;20029;-59
2022/01/22 04:11:51;;;;;;;24.55;7.20;;;;;;;;;;5054550;28;20025;-59
2022/01/22 04:14:22;;;;;;;15.40;5.38;;;;;;;;;;5069057;28;20033;-59
2022/01/22 04:17:05;;;;;;;16.95;6.47;;;;;;;;;;5053238;28;20017;-59
2022/01/22 04:24:58;;;;;;;18.25;6.40;;;;;;;;;;5048118;28;20466;-61
2022/01/22 04:27:26;;;;;;;9.63;4.10;;;;;;;;;;5050222;28;20021;-61
2022/01/22 04:29:52;;;;;;;10.27;6.45;;;;;;;;;;5048807;28;20132;-60
2022/01/22 04:32:17;;;;;;;23.95;7.63;;;;;;;;;;5064647;28;20040;-60
2022/01/22 04:34:42;;;;;;;17.27;5.78;;;;;;;;;;5068399;28;20104;-60
2022/01/22 04:37:08;;;;;;;19.45;5.95;;;;;;;;;;5070154;28;20070;-61
2022/01/22 04:39:35;;;;;;;20.33;6.55;;;;;;;;;;5057041;28;20045;-57
2022/01/22 04:42:01;;;;;;;13.63;5.65;;;;;;;;;;5053907;28;20139;-58
2022/01/22 04:44:31;;;;;;;18.67;4.47;;;;;;;;;;5068619;28;20501;-57
2022/01/22 04:47:13;;;;;;;10.38;3.85;;;;;;;;;;5049779;28;20059;-60
2022/01/22 04:55:02;;;;;;;17.60;5.47;;;;;;;;;;5047736;28;20451;-61
2022/01/22 04:57:28;;;;;;;15.55;5.40;;;;;;;;;;5050243;28;20430;-61
2022/01/22 04:59:53;;;;;;;22.05;5.85;;;;;;;;;;5048215;28;20090;-60
2022/01/22 05:02:18;;;;;;;20.17;4.43;;;;;;;;;;5064088;28;20040;-59
2022/01/22 05:04:44;;;;;;;16.42;4.30;;;;;;;;;;5068415;28;20135;-60
2022/01/22 05:07:09;;;;;;;12.45;5.63;;;;;;;;;;5071305;28;20028;-56
2022/01/22 05:09:35;;;;;;;13.48;4.72;;;;;;;;;;5055024;28;20521;-56
2022/01/22 05:12:00;;;;;;;13.57;4.23;;;;;;;;;;5051895;28;20028;-56
2022/01/22 05:14:25;;;;;;;10.60;5.57;;;;;;;;;;5055553;28;20528;-56
2022/01/22 05:16:51;;;;;;;16.35;5.97;;;;;;;;;;5050921;28;20040;-56
2022/01/22 05:19:24;;;;;;;11.75;4.65;;;;;;;;;;5051753;28;20065;-56
2022/01/22 05:21:52;;;;;;;7.00;4.07;;;;;;;;;;5059466;28;20096;-56
2022/01/22 05:24:22;;;;;;;15.02;4.55;;;;;;;;;;5050234;28;20505;-56
2022/01/22 05:32:22;;;;;;;14.43;4.95;;;;;;;;;;5052581;28;20033;-56
2022/01/22 05:37:32;;;;;;;19.25;6.88;;;;;;;;;;5063874;28;20048;-56
2022/01/22 05:39:57;;;;;;;12.55;5.47;;;;;;;;;;5055761;28;20040;-56
2022/01/22 05:42:22;;;;;;;14.60;5.03;;;;;;;;;;5052245;28;20035;-56
2022/01/22 05:44:47;;;;;;;16.75;4.70;;;;;;;;;;5050041;28;20037;-56
2022/01/22 05:47:19;;;;;;;21.67;6.67;;;;;;;;;;5050987;28;20036;-56
2022/01/22 05:49:45;;;;;;;16.70;5.55;;;;;;;;;;5062904;28;20481;-56
2022/01/22 05:52:12;;;;;;;8.30;4.65;;;;;;;;;;5070342;28;20036;-56
2022/01/22 05:55:29;;;;;;;12.75;4.93;;;;;;;;;;5046851;28;20411;-56
2022/01/22 06:00:13;;;;;;;8.23;5.07;;;;;;;;;;5057937;28;20469;-56
2022/01/22 06:02:38;;;;;;;9.15;4.15;;;;;;;;;;5071112;28;20024;-56
2022/01/22 06:05:03;;;;;;;12.77;4.45;;;;;;;;;;5056697;28;20033;-56
2022/01/22 06:07:29;;;;;;;11.88;4.88;;;;;;;;;;5051300;28;20033;-56
2022/01/22 06:15:13;;;;;;;17.70;6.50;;;;;;;;;;5016473;28;20052;-56
2022/01/22 06:17:38;;;;;;;12.07;6.53;;;;;;;;;;5050474;28;20017;-55
2022/01/22 06:20:04;;;;;;;9.40;5.70;;;;;;;;;;5052434;28;20044;-55
2022/01/22 06:22:29;;;;;;;10.65;5.20;;;;;;;;;;5070556;28;20514;-56
2022/01/22 06:24:55;;;;;;;22.02;6.05;;;;;;;;;;5054728;28;20468;-55
2022/01/22 06:27:21;;;;;;;19.30;6.35;;;;;;;;;;5051642;28;20037;-56
2022/01/22 06:29:46;;;;;;;11.13;5.28;;;;;;;;;;5049397;28;20037;-56
2022/01/22 06:32:11;;;;;;;17.30;5.73;;;;;;;;;;5050543;28;20488;-56
2022/01/22 06:34:36;;;;;;;10.82;5.22;;;;;;;;;;5056127;28;20486;-56
2022/01/22 06:37:01;;;;;;;12.80;5.77;;;;;;;;;;5062901;28;20028;-56
2022/01/22 06:39:27;;;;;;;9.18;6.45;;;;;;;;;;5048127;28;20470;-56
2022/01/22 06:41:53;;;;;;;20.92;5.85;;;;;;;;;;5051050;28;20049;-56
2022/01/22 06:44:19;;;;;;;20.13;5.68;;;;;;;;;;5063079;28;20337;-55
2022/01/22 06:46:46;;;;;;;8.27;5.82;;;;;;;;;;5050056;28;20068;-56
2022/01/22 06:49:11;;;;;;;13.93;5.43;;;;;;;;;;5049653;28;20115;-56
2022/01/22 06:51:36;;;;;;;12.82;4.68;;;;;;;;;;5050671;28;20379;-56
2022/01/22 06:54:03;;;;;;;9.73;5.03;;;;;;;;;;5044936;28;20032;-56
2022/01/22 06:56:29;;;;;;;15.35;6.38;;;;;;;;;;5049620;28;20479;-56
2022/01/22 06:58:55;;;;;;;20.13;7.25;;;;;;;;;;5046020;28;20404;-56
2022/01/22 07:01:20;;;;;;;12.38;4.88;;;;;;;;;;5046001;28;20025;-56
2022/01/22 07:03:45;;;;;;;10.95;4.95;;;;;;;;;;5048453;28;20024;-56
2022/01/22 07:06:11;;;;;;;8.73;5.03;;;;;;;;;;5050502;28;20070;-56
2022/01/22 07:08:36;;;;;;;9.73;4.82;;;;;;;;;;5042762;28;20458;-56
2022/01/22 07:11:01;;;;;;;12.60;5.97;;;;;;;;;;5050441;28;20005;-56
2022/01/22 07:13:26;;;;;;;14.80;6.63;;;;;;;;;;5047037;28;20021;-56
2022/01/22 07:15:51;;;;;;;14.40;7.47;;;;;;;;;;5047134;28;20444;-56
2022/01/22 07:18:17;;;;;;;13.27;8.90;;;;;;;;;;5049702;28;20032;-56
2022/01/22 07:20:43;;;;;;;16.03;7.63;;;;;;;;;;5045051;28;20553;-56
2022/01/22 07:23:31;;;;;;;17.23;10.20;;;;;;;;;;5049239;28;20451;-56
2022/01/22 07:25:56;;;;;;;22.92;13.30;;;;;;;;;;5046339;28;20048;-56
2022/01/22 07:28:21;;;;;;;22.77;10.43;;;;;;;;;;5045943;28;20805;-56
2022/01/22 07:30:48;;;;;;;16.08;10.93;;;;;;;;;;5044914;28;20030;-56
2022/01/22 07:33:13;;;;;;;16.83;7.88;;;;;;;;;;5046294;28;20041;-56
2022/01/22 07:35:38;;;;;;;11.43;6.95;;;;;;;;;;5048528;28;20417;-55
2022/01/22 07:38:04;;;;;;;13.55;6.25;;;;;;;;;;5046885;28;20044;-55
2022/01/22 07:40:29;;;;;;;12.80;7.35;;;;;;;;;;5047287;28;20110;-55
2022/01/22 07:42:55;;;;;;;13.32;6.07;;;;;;;;;;5049836;28;20098;-56
2022/01/22 07:45:20;;;;;;;10.70;7.13;;;;;;;;;;5048944;28;20029;-55
2022/01/22 07:47:45;;;;;;;13.70;6.13;;;;;;;;;;5050316;28;20116;-56
2022/01/22 07:50:10;;;;;;;11.33;6.17;;;;;;;;;;5048736;28;20566;-55
2022/01/22 07:52:35;;;;;;;10.60;5.90;;;;;;;;;;5049966;28;20458;-55
2022/01/22 07:55:01;;;;;;;14.70;5.80;;;;;;;;;;5048681;28;20041;-55
2022/01/22 07:57:26;;;;;;;12.88;6.43;;;;;;;;;;5050278;28;20025;-56
2022/01/22 07:59:51;;;;;;;8.40;5.43;;;;;;;;;;5048227;28;20045;-55
2022/01/22 08:02:16;;;;;;;7.93;5.17;;;;;;;;;;5050123;28;20451;-55
2022/01/22 08:04:41;;;;;;;10.90;6.03;;;;;;;;;;5048479;28;20458;-55
2022/01/22 08:07:08;;;;;;;9.10;4.80;;;;;;;;;;5049893;28;20484;-56
2022/01/22 08:09:33;;;;;;;9.57;4.68;;;;;;;;;;5048564;28;20493;-55
2022/01/22 08:11:59;;;;;;;7.40;5.00;;;;;;;;;;5049714;28;20045;-55
2022/01/22 08:14:24;;;;;;;9.13;4.53;;;;;;;;;;5048261;28;20459;-55
2022/01/22 08:16:50;;;;;;;7.35;5.57;;;;;;;;;;5049804;28;20047;-55
2022/01/22 08:19:16;;;;;;;10.65;5.70;;;;;;;;;;5048495;28;20069;-55
2022/01/22 08:21:42;;;;;;;10.30;5.53;;;;;;;;;;5048921;28;20051;-55
2022/01/22 08:24:08;;;;;;;10.15;5.15;;;;;;;;;;5047946;28;20480;-56
2022/01/22 08:26:37;;;;;;;11.35;5.65;;;;;;;;;;5049549;28;20047;-55
2022/01/22 08:29:03;;;;;;;17.92;7.22;;;;;;;;;;5047777;28;20040;-56
2022/01/22 08:36:41;;;;;;;16.50;4.95;;;;;;;;;;5047754;28;20167;-55
2022/01/22 08:39:07;;;;;;;13.38;5.63;;;;;;;;;;5047906;28;20127;-55
2022/01/22 08:41:32;;;;;;;12.83;5.60;;;;;;;;;;5052396;28;20024;-55
2022/01/22 08:43:59;;;;;;;14.75;5.95;;;;;;;;;;5050987;28;20467;-56
2022/01/22 08:46:24;;;;;;;14.35;5.90;;;;;;;;;;5053214;28;20033;-55
2022/01/22 08:48:49;;;;;;;11.40;8.02;;;;;;;;;;5051162;28;20396;-55
2022/01/22 08:51:15;;;;;;;13.70;7.60;;;;;;;;;;5052779;28;20021;-55
2022/01/22 08:53:40;;;;;;;8.38;6.03;;;;;;;;;;5051188;28;20443;-56
2022/01/22 08:56:07;;;;;;;9.63;6.57;;;;;;;;;;5052910;28;20075;-55
2022/01/22 08:58:32;;;;;;;13.35;7.38;;;;;;;;;;5050895;28;20017;-55
2022/01/22 09:00:58;;;;;;;11.55;6.78;;;;;;;;;;5052377;28;20017;-55
2022/01/22 09:03:23;;;;;;;10.93;5.50;;;;;;;;;;5052966;28;20021;-56
2022/01/22 09:05:49;;;;;;;14.35;6.72;;;;;;;;;;5050683;28;20452;-55
2022/01/22 09:08:17;;;;;;;12.02;7.30;;;;;;;;;;5053269;28;20067;-56
2022/01/22 09:10:43;;;;;;;14.13;6.40;;;;;;;;;;5050701;28;20029;-55
2022/01/22 09:13:08;;;;;;;8.80;5.45;;;;;;;;;;5052974;28;20036;-54
2022/01/22 09:15:34;;;;;;;12.85;7.35;;;;;;;;;;5051552;28;20040;-55
2022/01/22 09:17:59;;;;;;;13.47;6.93;;;;;;;;;;5052745;28;20051;-55
2022/01/22 09:20:43;;;;;;;11.67;5.33;;;;;;;;;;5051046;28;20068;-55
2022/01/22 09:23:10;;;;;;;7.35;6.38;;;;;;;;;;5053098;28;20498;-55
2022/01/22 09:25:35;;;;;;;13.85;4.93;;;;;;;;;;5047795;28;20171;-55
2022/01/22 09:28:01;;;;;;;10.57;6.28;;;;;;;;;;5051562;28;20602;-55
2022/01/22 09:30:26;;;;;;;13.02;6.60;;;;;;;;;;5050946;28;20048;-55
2022/01/22 09:32:52;;;;;;;9.07;5.22;;;;;;;;;;5052003;28;20055;-55
2022/01/22 09:35:17;;;;;;;13.30;6.30;;;;;;;;;;5050481;28;20056;-55
2022/01/22 09:37:43;;;;;;;8.30;5.30;;;;;;;;;;5052251;28;20021;-55
2022/01/22 09:40:08;;;;;;;7.30;4.68;;;;;;;;;;5050986;28;20467;-55
2022/01/22 09:42:33;;;;;;;13.07;6.28;;;;;;;;;;5051571;28;20626;-55
2022/01/22 09:44:59;;;;;;;11.90;5.03;;;;;;;;;;5050676;28;20045;-55
2022/01/22 09:47:24;;;;;;;5.43;3.57;;;;;;;;;;5051977;28;20512;-55
2022/01/22 09:49:49;;;;;;;10.50;5.05;;;;;;;;;;5049624;28;20551;-55
2022/01/22 09:52:14;;;;;;;6.13;3.70;;;;;;;;;;5052331;28;20059;-56
2022/01/22 09:54:40;;;;;;;8.25;4.93;;;;;;;;;;5050697;28;20475;-55
2022/01/22 09:57:06;;;;;;;7.82;4.32;;;;;;;;;;5051857;28;20128;-55
2022/01/22 09:59:31;;;;;;;9.07;5.20;;;;;;;;;;5050486;28;20283;-55
2022/01/22 10:02:13;;;;;;;14.77;5.60;;;;;;;;;;5051291;28;20017;-55
2022/01/22 10:04:39;;;;;;;8.93;4.75;;;;;;;;;;5049683;28;20041;-55
2022/01/22 10:07:04;;;;;;;7.65;4.93;;;;;;;;;;5051767;28;20013;-55
2022/01/22 10:09:46;;;;;;;12.50;5.35;;;;;;;;;;5048880;28;20059;-58
2022/01/22 10:12:20;;;;;;;7.30;4.97;;;;;;;;;;5051195;28;20040;-55
2022/01/22 10:15:04;;;;;;;11.63;5.75;;;;;;;;;;5049821;28;20051;-55
2022/01/22 10:17:39;;;;;;;7.60;5.35;;;;;;;;;;5051145;28;20017;-55
2022/01/22 10:20:24;;;;;;;9.93;4.00;;;;;;;;;;5053215;28;20140;-55
2022/01/22 10:22:50;;;;;;;12.25;5.95;;;;;;;;;;5036988;28;20025;-55
2022/01/22 10:25:23;;;;;;;8.10;4.07;;;;;;;;;;5052506;28;20052;-55
2022/01/22 10:27:54;;;;;;;9.15;3.58;;;;;;;;;;5051032;28;20404;-55
2022/01/22 10:30:21;;;;;;;10.50;3.97;;;;;;;;;;5061433;28;20449;-55
2022/01/22 10:32:51;;;;;;;20.38;6.18;;;;;;;;;;5060489;28;20049;-55
2022/01/22 10:35:18;;;;;;;9.27;3.03;;;;;;;;;;5051560;28;20672;-55
2022/01/22 10:37:43;;;;;;;9.13;3.00;;;;;;;;;;5049539;28;20041;-55
2022/01/22 10:40:23;;;;;;;15.45;5.70;;;;;;;;;;5045471;28;20468;-55
2022/01/22 10:42:49;;;;;;;11.32;3.60;;;;;;;;;;5051427;28;20028;-54
2022/01/22 10:45:23;;;;;;;3.78;3.35;;;;;;;;;;5052657;28;20033;-54
2022/01/22 10:47:48;;;;;;;4.75;2.60;;;;;;;;;;5048616;28;20048;-55
2022/01/22 10:50:18;;;;;;;4.20;3.28;;;;;;;;;;5046863;28;20060;-55
2022/01/22 10:52:47;;;;;;;4.32;2.10;;;;;;;;;;5042406;28;20064;-55
2022/01/22 10:55:12;;;;;;;7.20;3.13;;;;;;;;;;5047258;28;20102;-55
2022/01/22 10:57:38;;;;;;;3.45;2.45;;;;;;;;;;5052691;28;20024;-55
2022/01/22 11:00:03;;;;;;;4.65;3.08;;;;;;;;;;5044882;28;20660;-55
2022/01/22 11:02:35;;;;;;;5.60;3.58;;;;;;;;;;5049817;28;20063;-55
2022/01/22 11:05:00;;;;;;;4.75;3.42;;;;;;;;;;5046655;28;20070;-55
2022/01/22 11:07:26;;;;;;;10.30;3.00;;;;;;;;;;5056900;28;20037;-55
2022/01/22 11:09:51;;;;;;;4.60;3.45;;;;;;;;;;5057963;28;20138;-56
2022/01/22 11:12:16;;;;;;;7.95;3.67;;;;;;;;;;5048790;28;20033;-55
2022/01/22 11:14:42;;;;;;;10.25;3.65;;;;;;;;;;5048107;28;20075;-55
2022/01/22 11:17:08;;;;;;;6.45;3.35;;;;;;;;;;5050079;28;20079;-55
2022/01/22 11:19:34;;;;;;;5.75;3.45;;;;;;;;;;5047368;28;20037;-55
2022/01/22 11:22:03;;;;;;;11.10;4.13;;;;;;;;;;5047194;28;20016;-55
2022/01/22 11:24:28;;;;;;;13.05;4.40;;;;;;;;;;5048751;28;20059;-55
2022/01/22 11:26:55;;;;;;;12.18;4.10;;;;;;;;;;5048012;28;20480;-55
2022/01/22 11:29:28;;;;;;;16.20;4.60;;;;;;;;;;5051141;28;20044;-56
2022/01/22 11:31:54;;;;;;;7.38;4.35;;;;;;;;;;5058416;28;20108;-55
2022/01/22 11:34:23;;;;;;;13.27;5.00;;;;;;;;;;5048462;28;20045;-55
2022/01/22 11:36:58;;;;;;;9.65;5.60;;;;;;;;;;5050846;28;20028;-55
2022/01/22 11:39:24;;;;;;;9.57;5.57;;;;;;;;;;5035272;28;20041;-55
2022/01/22 11:41:53;;;;;;;12.40;4.75;;;;;;;;;;5063808;28;20032;-55
2022/01/22 11:44:40;;;;;;;8.50;4.90;;;;;;;;;;5049501;28;20069;-53
2022/01/22 11:47:15;;;;;;;10.32;5.88;;;;;;;;;;5051301;28;20029;-55
2022/01/22 11:49:41;;;;;;;15.98;7.15;;;;;;;;;;5048705;28;20041;-55
2022/01/22 11:52:12;;;;;;;15.18;6.95;;;;;;;;;;5050125;28;20029;-55
2022/01/22 11:54:49;;;;;;;10.20;6.45;;;;;;;;;;5047466;28;20550;-55
2022/01/22 11:57:16;;;;;;;20.92;9.25;;;;;;;;;;5061980;28;20044;-55
2022/01/22 11:59:43;;;;;;;19.50;8.68;;;;;;;;;;5068177;28;20036;-55
2022/01/22 12:02:12;;;;;;;12.60;5.90;;;;;;;;;;5063032;28;20791;-55
2022/01/22 12:04:37;;;;;;;17.20;6.25;;;;;;;;;;5048785;28;20503;-55
2022/01/22 12:07:05;;;;;;;15.82;7.03;;;;;;;;;;5060121;28;20597;-55
2022/01/22 12:15:09;;;;;;;18.52;7.32;;;;;;;;;;5049883;28;20090;-55
2022/01/22 12:17:46;;;;;;;23.58;7.97;;;;;;;;;;5054169;28;20024;-55
2022/01/22 12:23:01;;;;;;;12.43;6.70;;;;;;;;;;5052905;28;20464;-55
2022/01/22 12:25:29;;;;;;;14.07;8.30;;;;;;;;;;5052472;28;20049;-55
2022/01/22 12:27:55;;;;;;;17.40;8.17;;;;;;;;;;5054113;28;20074;-55
2022/01/22 12:30:34;;;;;;;28.17;9.63;;;;;;;;;;5052676;28;20033;-55
2022/01/22 12:33:00;;;;;;;14.50;6.97;;;;;;;;;;5064858;28;20052;-55
2022/01/22 12:35:37;;;;;;;21.85;10.90;;;;;;;;;;5068757;28;20060;-55
2022/01/22 12:38:18;;;;;;;16.88;7.65;;;;;;;;;;5054107;28;20508;-54
2022/01/22 12:40:45;;;;;;;13.32;10.35;;;;;;;;;;5049764;28;20049;-54
2022/01/22 12:43:14;;;;;;;22.48;9.40;;;;;;;;;;5066739;28;20044;-55
2022/01/22 12:45:41;;;;;;;21.27;10.07;;;;;;;;;;5053237;28;20033;-55
2022/01/22 12:48:07;;;;;;;16.80;10.60;;;;;;;;;;5053450;28;20087;-55
2022/01/22 12:50:33;;;;;;;13.80;9.45;;;;;;;;;;5052018;28;20095;-55
2022/01/22 12:53:04;;;;;;;17.55;9.18;;;;;;;;;;5064396;28;20055;-55
2022/01/22 12:56:00;;;;;;;15.02;10.40;;;;;;;;;;5072047;28;20028;-55
2022/01/22 12:58:25;;;;;;;15.98;7.95;;;;;;;;;;5050806;28;20037;-55
2022/01/22 13:00:52;;;;;;;18.15;7.57;;;;;;;;;;5051885;28;20112;-55
2022/01/22 13:03:34;;;;;;;23.40;9.02;;;;;;;;;;5066475;28;20450;-55
2022/01/22 13:05:59;;;;;;;13.30;7.35;;;;;;;;;;5071940;28;20527;-55
2022/01/22 13:08:28;;;;;;;16.33;7.93;;;;;;;;;;5054472;28;20031;-55
2022/01/22 13:10:55;;;;;;;13.55;9.02;;;;;;;;;;5051720;28;20037;-54
2022/01/22 13:13:20;;;;;;;12.57;6.78;;;;;;;;;;5066246;28;20028;-55
2022/01/22 13:15:46;;;;;;;18.33;8.95;;;;;;;;;;5071697;28;20376;-55
2022/01/22 13:18:11;;;;;;;16.33;7.93;;;;;;;;;;5060923;28;20112;-55
2022/01/22 13:20:36;;;;;;;14.68;10.00;;;;;;;;;;5051426;28;20487;-55
2022/01/22 13:23:18;;;;;;;20.35;8.57;;;;;;;;;;5066441;28;20016;-55
2022/01/22 13:25:43;;;;;;;20.67;9.52;;;;;;;;;;5071080;28;20063;-55
2022/01/22 13:28:13;;;;;;;14.38;7.38;;;;;;;;;;5061494;28;20028;-55
2022/01/22 13:30:43;;;;;;;17.98;7.95;;;;;;;;;;5063341;28;20666;-55
2022/01/22 13:33:14;;;;;;;20.65;9.07;;;;;;;;;;5073098;28;20048;-55
2022/01/22 13:35:55;;;;;;;19.77;9.20;;;;;;;;;;5052574;28;20512;-54
2022/01/22 13:38:41;;;;;;;17.60;9.20;;;;;;;;;;5065228;28;20399;-54
2022/01/22 13:49:27;;;;;;;17.15;8.90;;;;;;;;;;5071508;28;20044;-55
2022/01/22 13:51:54;;;;;;;21.25;8.77;;;;;;;;;;5069492;28;20033;-55
2022/01/22 13:54:19;;;;;;;14.57;7.63;;;;;;;;;;5050904;28;20045;-55
2022/01/22 13:56:48;;;;;;;19.53;9.00;;;;;;;;;;5053253;28;20033;-55
2022/01/22 13:59:23;;;;;;;20.25;8.00;;;;;;;;;;5070909;28;20120;-55
2022/01/22 14:02:06;;;;;;;16.10;9.77;;;;;;;;;;5072163;28;20019;-55
2022/01/22 14:04:38;;;;;;;17.90;9.82;;;;;;;;;;5071294;28;20025;-55
2022/01/22 14:07:24;;;;;;;17.20;9.00;;;;;;;;;;5069652;28;20019;-55
2022/01/22 14:09:54;;;;;;;19.10;10.25;;;;;;;;;;5062634;28;20052;-55
2022/01/22 14:12:20;;;;;;;12.93;7.88;;;;;;;;;;5065070;28;20031;-55
2022/01/22 14:15:20;;;;;;;15.15;7.18;;;;;;;;;;5050827;28;20125;-55
2022/01/22 14:20:41;;;;;;;13.82;6.95;;;;;;;;;;5029912;28;20045;-55
2022/01/22 14:23:11;;;;;;;9.55;7.70;;;;;;;;;;5032120;28;20044;-55
2022/01/22 14:25:37;;;;;;;16.92;7.35;;;;;;;;;;5030698;28;20037;-55
2022/01/22 14:28:04;;;;;;;11.40;6.85;;;;;;;;;;5053087;28;20479;-55
2022/01/22 14:30:34;;;;;;;12.20;6.45;;;;;;;;;;5070122;28;20515;-55
2022/01/22 14:32:59;;;;;;;11.07;7.03;;;;;;;;;;5071712;28;20135;-55
2022/01/22 14:35:24;;;;;;;10.18;7.10;;;;;;;;;;5070656;28;20555;-55
2022/01/22 14:37:53;;;;;;;30.40;8.23;;;;;;;;;;5058056;28;20082;-55
2022/01/22 14:46:06;;;;;;;8.68;7.07;;;;;;;;;;4988320;28;20045;-55
2022/01/22 14:48:31;;;;;;;15.48;9.02;;;;;;;;;;4988314;28;20034;-55
2022/01/22 14:50:56;;;;;;;7.65;6.90;;;;;;;;;;5008490;28;20179;-55
2022/01/22 14:53:21;;;;;;;13.25;8.05;;;;;;;;;;5031365;28;20388;-55
2022/01/22 14:55:48;;;;;;;10.73;8.07;;;;;;;;;;5029969;28;20037;-55
2022/01/22 14:58:13;;;;;;;12.70;6.68;;;;;;;;;;5061226;28;20447;-55
2022/01/22 15:00:38;;;;;;;9.90;7.30;;;;;;;;;;5069121;28;20040;-55
2022/01/22 15:03:03;;;;;;;18.55;7.30;;;;;;;;;;5071375;28;20432;-55
2022/01/22 15:05:29;;;;;;;14.50;7.22;;;;;;;;;;5069740;28;20037;-55
2022/01/22 15:07:55;;;;;;;20.88;7.82;;;;;;;;;;5058349;28;20049;-55
2022/01/22 15:10:22;;;;;;;12.38;7.07;;;;;;;;;;5049837;28;20143;-55
2022/01/22 15:12:47;;;;;;;14.27;6.65;;;;;;;;;;5051089;28;20491;-55
2022/01/22 15:15:13;;;;;;;20.17;7.40;;;;;;;;;;5049155;28;20037;-55
2022/01/22 15:17:53;;;;;;;14.48;5.85;;;;;;;;;;5060209;28;20743;-55
2022/01/22 15:20:19;;;;;;;16.73;6.22;;;;;;;;;;5069521;28;20033;-54
2022/01/22 15:22:44;;;;;;;14.88;4.88;;;;;;;;;;5070356;28;20024;-55
2022/01/22 15:25:10;;;;;;;12.23;5.30;;;;;;;;;;5069554;28;20032;-55
2022/01/22 15:27:35;;;;;;;17.02;5.47;;;;;;;;;;5061928;28;20468;-55
2022/01/22 15:33:15;;;;;;;10.50;5.57;;;;;;;;;;5038426;28;20126;-55
2022/01/22 15:35:40;;;;;;;11.27;5.10;;;;;;;;;;5055679;28;20033;-55
2022/01/22 15:38:05;;;;;;;9.52;4.72;;;;;;;;;;5056898;28;20029;-55
2022/01/22 15:40:32;;;;;;;17.63;3.67;;;;;;;;;;5048515;28;20045;-55
2022/01/22 15:42:57;;;;;;;11.98;5.18;;;;;;;;;;5050266;28;20835;-55
2022/01/22 15:45:23;;;;;;;23.37;8.90;;;;;;;;;;5050931;28;20100;-55
2022/01/22 15:47:49;;;;;;;14.18;10.00;;;;;;;;;;5049605;28;20525;-55
2022/01/22 15:50:14;;;;;;;15.82;10.88;;;;;;;;;;5064219;28;20044;-55
2022/01/22 15:52:39;;;;;;;19.30;10.27;;;;;;;;;;5048253;28;20099;-55
2022/01/22 15:55:08;;;;;;;30.43;17.10;;;;;;;;;;5048367;28;20094;-54
2022/01/22 15:57:33;;;;;;;24.33;16.08;;;;;;;;;;5070581;28;20437;-55
2022/01/22 15:59:59;;;;;;;17.52;8.27;;;;;;;;;;5047736;28;20037;-55
2022/01/22 16:02:24;;;;;;;8.43;5.43;;;;;;;;;;5049399;28;20021;-55
2022/01/22 16:04:51;;;;;;;8.67;5.37;;;;;;;;;;5048818;28;20037;-54
2022/01/22 16:07:23;;;;;;;16.05;7.88;;;;;;;;;;5049434;28;20396;-54
2022/01/22 16:09:50;;;;;;;26.08;12.45;;;;;;;;;;5047308;28;20039;-55
2022/01/22 16:12:15;;;;;;;21.75;11.02;;;;;;;;;;5044074;28;20017;-54
2022/01/22 16:14:41;;;;;;;16.08;9.10;;;;;;;;;;5043075;28;20044;-55
2022/01/22 16:17:06;;;;;;;9.90;6.03;;;;;;;;;;5046743;28;20021;-55
2022/01/22 16:19:33;;;;;;;11.90;6.97;;;;;;;;;;5048022;28;20512;-54
2022/01/22 16:21:58;;;;;;;10.32;6.38;;;;;;;;;;5046556;28;20100;-55
2022/01/22 16:24:23;;;;;;;11.00;7.05;;;;;;;;;;5048228;28;20172;-55